PWSweather.com
Personal Weather Stations
Station Observations
KCOBLACK1
Chalet Park, Black Hawk, CO 80422

Chalet ParkBlack Hawk, CO 80422

Lat: 39.8294, Lon: -105.48

Elevation: 9370

Station Type: Vantage Pro2

http://www.oscaranddeb.com/weather

High Low Average
Temperature 34.5°F1.4°F 3.8°F-15.7°F 21.8°F-5.7°F
Dew Point 21.1°F-6.1°F -6.0°F-21.1°F 14.4°F-9.8°F
Winds 43.0 mph WSW69.2 mph WSW Calm Calm 6.2 mph 10.0 mph
Wind Gusts 52.0 mph83.7 mph 1.0 mph1.6 mph 13.2 mph21.2 mph
Humidity 85% 44% 63%
Pressure 29.85 in1010.80 in 29.51 in999.30 in -
Precipitation 0.00 in0.00 in - -
Hour Temp Dew Point Humidity Winds Wind Gusts Pressure Precip Precip Rate Daily Precip Total
12:00 AM 33.9°F1.1°C 15.8°F-9.0°C 47% 31.0 mph WSW49.9 kmh WSW 47.0 mph75.6 kmh 29.72 in1006.4 mb 0.00 in0.0 mm 0.00 in0.0 mm 0.00 in0.0 mm
12:05 AM 33.9°F1.1°C 15.8°F-9.0°C 47% 41.0 mph WSW66.0 kmh WSW 45.0 mph72.4 kmh 29.71 in1006.1 mb 0.00 in0.0 mm 0.00 in0.0 mm 0.00 in0.0 mm
12:10 AM 33.7°F0.9°C 15.6°F-9.1°C 47% 16.0 mph W25.7 kmh W 45.0 mph72.4 kmh 29.71 in1006.1 mb 0.00 in0.0 mm 0.00 in0.0 mm 0.00 in0.0 mm
12:15 AM 34.0°F1.1°C 15.4°F-9.2°C 46% 36.0 mph SW57.9 kmh SW 51.0 mph82.1 kmh 29.70 in1005.8 mb 0.00 in0.0 mm 0.00 in0.0 mm 0.00 in0.0 mm
12:20 AM 34.3°F1.3°C 15.6°F-9.1°C 46% 23.0 mph WSW37.0 kmh WSW 49.0 mph78.9 kmh 29.71 in1006.1 mb 0.00 in0.0 mm 0.00 in0.0 mm 0.00 in0.0 mm
12:25 AM 34.2°F1.2°C 15.6°F-9.1°C 46% 31.0 mph WSW49.9 kmh WSW 42.0 mph67.6 kmh 29.70 in1005.8 mb 0.00 in0.0 mm 0.00 in0.0 mm 0.00 in0.0 mm
12:30 AM 34.3°F1.3°C 15.6°F-9.1°C 46% 43.0 mph WSW69.2 kmh WSW 43.0 mph69.2 kmh 29.70 in1005.8 mb 0.00 in0.0 mm 0.00 in0.0 mm 0.00 in0.0 mm
12:35 AM 34.4°F1.3°C 15.7°F-9.1°C 46% 29.0 mph WSW46.7 kmh WSW 51.0 mph82.1 kmh 29.70 in1005.8 mb 0.00 in0.0 mm 0.00 in0.0 mm 0.00 in0.0 mm
12:40 AM 34.3°F1.3°C 15.6°F-9.1°C 46% 24.0 mph WSW38.6 kmh WSW 44.0 mph70.8 kmh 29.71 in1006.1 mb 0.00 in0.0 mm 0.00 in0.0 mm 0.00 in0.0 mm
12:45 AM 34.5°F1.4°C 15.3°F-9.3°C 45% 30.0 mph SW48.3 kmh SW 52.0 mph83.7 kmh 29.71 in1006.1 mb 0.00 in0.0 mm 0.00 in0.0 mm 0.00 in0.0 mm
12:50 AM 34.4°F1.3°C 15.2°F-9.3°C 45% 26.0 mph WSW41.8 kmh WSW 37.0 mph59.5 kmh 29.72 in1006.4 mb 0.00 in0.0 mm 0.00 in0.0 mm 0.00 in0.0 mm
12:55 AM 34.4°F1.3°C 15.2°F-9.3°C 45% 10.0 mph WSW16.1 kmh WSW 37.0 mph59.5 kmh 29.73 in1006.8 mb 0.00 in0.0 mm 0.00 in0.0 mm 0.00 in0.0 mm
01:00 AM 34.3°F1.3°C 15.6°F-9.1°C 46% 9.0 mph W14.5 kmh W 23.0 mph37.0 kmh 29.72 in1006.4 mb 0.00 in0.0 mm 0.00 in0.0 mm 0.00 in0.0 mm
01:05 AM 34.3°F1.3°C 15.1°F-9.4°C 45% 13.0 mph WSW20.9 kmh WSW 26.0 mph41.8 kmh 29.73 in1006.8 mb 0.00 in0.0 mm 0.00 in0.0 mm 0.00 in0.0 mm
01:10 AM 34.2°F1.2°C 15.1°F-9.4°C 45% 2.0 mph W3.2 kmh W 25.0 mph40.2 kmh 29.72 in1006.4 mb 0.00 in0.0 mm 0.00 in0.0 mm 0.00 in0.0 mm
01:15 AM 33.9°F1.1°C 15.3°F-9.3°C 46% 1.0 mph WSW1.6 kmh WSW 16.0 mph25.7 kmh 29.72 in1006.4 mb 0.00 in0.0 mm 0.00 in0.0 mm 0.00 in0.0 mm
01:20 AM 33.9°F1.1°C 14.8°F-9.6°C 45% 10.0 mph SW16.1 kmh SW 17.0 mph27.4 kmh 29.72 in1006.4 mb 0.00 in0.0 mm 0.00 in0.0 mm 0.00 in0.0 mm
01:25 AM 33.8°F1.0°C 14.7°F-9.6°C 45% 6.0 mph W9.7 kmh W 14.0 mph22.5 kmh 29.72 in1006.4 mb 0.00 in0.0 mm 0.00 in0.0 mm 0.00 in0.0 mm
01:30 AM 33.7°F0.9°C 14.6°F-9.7°C 45% 6.0 mph WSW9.7 kmh WSW 14.0 mph22.5 kmh 29.71 in1006.1 mb 0.00 in0.0 mm 0.00 in0.0 mm 0.00 in0.0 mm
01:35 AM 33.5°F0.8°C 14.4°F-9.8°C 45% 10.0 mph WSW16.1 kmh WSW 14.0 mph22.5 kmh 29.71 in1006.1 mb 0.00 in0.0 mm 0.00 in0.0 mm 0.00 in0.0 mm
01:40 AM 33.5°F0.8°C 14.4°F-9.8°C 45% 4.0 mph WSW6.4 kmh WSW 12.0 mph19.3 kmh 29.71 in1006.1 mb 0.00 in0.0 mm 0.00 in0.0 mm 0.00 in0.0 mm
01:45 AM 33.8°F1.0°C 14.2°F-9.9°C 44% 11.0 mph W17.7 kmh W 20.0 mph32.2 kmh 29.71 in1006.1 mb 0.00 in0.0 mm 0.00 in0.0 mm 0.00 in0.0 mm
01:50 AM 34.0°F1.1°C 14.4°F-9.8°C 44% 8.0 mph WSW12.9 kmh WSW 18.0 mph29.0 kmh 29.71 in1006.1 mb 0.00 in0.0 mm 0.00 in0.0 mm 0.00 in0.0 mm
01:55 AM 34.0°F1.1°C 14.4°F-9.8°C 44% 6.0 mph W9.7 kmh W 18.0 mph29.0 kmh 29.71 in1006.1 mb 0.00 in0.0 mm 0.00 in0.0 mm 0.00 in0.0 mm
02:00 AM 33.9°F1.1°C 14.3°F-9.8°C 44% 8.0 mph SW12.9 kmh SW 17.0 mph27.4 kmh 29.70 in1005.8 mb 0.00 in0.0 mm 0.00 in0.0 mm 0.00 in0.0 mm
02:05 AM 34.0°F1.1°C 14.9°F-9.5°C 45% 12.0 mph WSW19.3 kmh WSW 19.0 mph30.6 kmh 29.70 in1005.8 mb 0.00 in0.0 mm 0.00 in0.0 mm 0.00 in0.0 mm
02:10 AM 34.0°F1.1°C 14.4°F-9.8°C 44% 9.0 mph WSW14.5 kmh WSW 17.0 mph27.4 kmh 29.70 in1005.8 mb 0.00 in0.0 mm 0.00 in0.0 mm 0.00 in0.0 mm
02:15 AM 34.2°F1.2°C 14.5°F-9.7°C 44% 9.0 mph W14.5 kmh W 18.0 mph29.0 kmh 29.70 in1005.8 mb 0.00 in0.0 mm 0.00 in0.0 mm 0.00 in0.0 mm
02:20 AM 34.4°F1.3°C 14.7°F-9.6°C 44% 8.0 mph WSW12.9 kmh WSW 24.0 mph38.6 kmh 29.70 in1005.8 mb 0.00 in0.0 mm 0.00 in0.0 mm 0.00 in0.0 mm
02:25 AM 34.2°F1.2°C 14.5°F-9.7°C 44% 5.0 mph WSW8.0 kmh WSW 17.0 mph27.4 kmh 29.69 in1005.4 mb 0.00 in0.0 mm 0.00 in0.0 mm 0.00 in0.0 mm
02:30 AM 34.2°F1.2°C 14.5°F-9.7°C 44% 5.0 mph WSW8.0 kmh WSW 15.0 mph24.1 kmh 29.69 in1005.4 mb 0.00 in0.0 mm 0.00 in0.0 mm 0.00 in0.0 mm
02:35 AM 34.3°F1.3°C 14.6°F-9.7°C 44% 6.0 mph WSW9.7 kmh WSW 13.0 mph20.9 kmh 29.69 in1005.4 mb 0.00 in0.0 mm 0.00 in0.0 mm 0.00 in0.0 mm
02:40 AM 34.2°F1.2°C 14.5°F-9.7°C 44% 6.0 mph SW9.7 kmh SW 11.0 mph17.7 kmh 29.69 in1005.4 mb 0.00 in0.0 mm 0.00 in0.0 mm 0.00 in0.0 mm
02:45 AM 34.1°F1.2°C 14.4°F-9.8°C 44% 4.0 mph SW6.4 kmh SW 8.0 mph12.9 kmh 29.68 in1005.1 mb 0.00 in0.0 mm 0.00 in0.0 mm 0.00 in0.0 mm
02:50 AM 33.9°F1.1°C 14.8°F-9.6°C 45% 10.0 mph WSW16.1 kmh WSW 10.0 mph16.1 kmh 29.68 in1005.1 mb 0.00 in0.0 mm 0.00 in0.0 mm 0.00 in0.0 mm
02:55 AM 33.9°F1.1°C 14.8°F-9.6°C 45% 7.0 mph SW11.3 kmh SW 10.0 mph16.1 kmh 29.67 in1004.7 mb 0.00 in0.0 mm 0.00 in0.0 mm 0.00 in0.0 mm
03:00 AM 33.9°F1.1°C 14.8°F-9.6°C 45% 10.0 mph WSW16.1 kmh WSW 17.0 mph27.4 kmh 29.67 in1004.7 mb 0.00 in0.0 mm 0.00 in0.0 mm 0.00 in0.0 mm
03:05 AM 34.0°F1.1°C 14.9°F-9.5°C 45% 6.0 mph SW9.7 kmh SW 10.0 mph16.1 kmh 29.67 in1004.7 mb 0.00 in0.0 mm 0.00 in0.0 mm 0.00 in0.0 mm
03:10 AM 34.2°F1.2°C 15.1°F-9.4°C 45% 6.0 mph SW9.7 kmh SW 17.0 mph27.4 kmh 29.67 in1004.7 mb 0.00 in0.0 mm 0.00 in0.0 mm 0.00 in0.0 mm
03:15 AM 34.3°F1.3°C 15.1°F-9.4°C 45% 9.0 mph W14.5 kmh W 15.0 mph24.1 kmh 29.67 in1004.7 mb 0.00 in0.0 mm 0.00 in0.0 mm 0.00 in0.0 mm
03:20 AM 34.5°F1.4°C 15.8°F-9.0°C 46% 10.0 mph W16.1 kmh W 14.0 mph22.5 kmh 29.66 in1004.4 mb 0.00 in0.0 mm 0.00 in0.0 mm 0.00 in0.0 mm
03:25 AM 34.4°F1.3°C 15.7°F-9.1°C 46% 4.0 mph WSW6.4 kmh WSW 13.0 mph20.9 kmh 29.66 in1004.4 mb 0.00 in0.0 mm 0.00 in0.0 mm 0.00 in0.0 mm
03:30 AM 34.3°F1.3°C 16.1°F-8.8°C 47% 6.0 mph WSW9.7 kmh WSW 14.0 mph22.5 kmh 29.65 in1004.1 mb 0.00 in0.0 mm 0.00 in0.0 mm 0.00 in0.0 mm
03:35 AM 34.4°F1.3°C 16.2°F-8.8°C 47% 4.0 mph SSW6.4 kmh SSW 12.0 mph19.3 kmh 29.65 in1004.1 mb 0.00 in0.0 mm 0.00 in0.0 mm 0.00 in0.0 mm
03:40 AM 34.2°F1.2°C 16.0°F-8.9°C 47% 2.0 mph SW3.2 kmh SW 9.0 mph14.5 kmh 29.65 in1004.1 mb 0.00 in0.0 mm 0.00 in0.0 mm 0.00 in0.0 mm
03:45 AM 34.0°F1.1°C 15.9°F-8.9°C 47% 4.0 mph SW6.4 kmh SW 7.0 mph11.3 kmh 29.64 in1003.7 mb 0.00 in0.0 mm 0.00 in0.0 mm 0.00 in0.0 mm
03:50 AM 33.8°F1.0°C 16.2°F-8.8°C 48% 9.0 mph SW14.5 kmh SW 16.0 mph25.7 kmh 29.64 in1003.7 mb 0.00 in0.0 mm 0.00 in0.0 mm 0.00 in0.0 mm
03:55 AM 33.6°F0.9°C 16.5°F-8.6°C 49% 13.0 mph SW20.9 kmh SW 13.0 mph20.9 kmh 29.63 in1003.4 mb 0.00 in0.0 mm 0.00 in0.0 mm 0.00 in0.0 mm
04:00 AM 33.6°F0.9°C 16.9°F-8.4°C 50% 5.0 mph SSW8.0 kmh SSW 19.0 mph30.6 kmh 29.63 in1003.4 mb 0.00 in0.0 mm 0.00 in0.0 mm 0.00 in0.0 mm
04:05 AM 33.5°F0.8°C 16.8°F-8.4°C 50% 5.0 mph SW8.0 kmh SW 14.0 mph22.5 kmh 29.62 in1003.0 mb 0.00 in0.0 mm 0.00 in0.0 mm 0.00 in0.0 mm
04:10 AM 33.3°F0.7°C 17.1°F-8.3°C 51% 3.0 mph SW4.8 kmh SW 10.0 mph16.1 kmh 29.61 in1002.7 mb 0.00 in0.0 mm 0.00 in0.0 mm 0.00 in0.0 mm
04:15 AM 33.3°F0.7°C 17.1°F-8.3°C 51% 2.0 mph WSW3.2 kmh WSW 12.0 mph19.3 kmh 29.61 in1002.7 mb 0.00 in0.0 mm 0.00 in0.0 mm 0.00 in0.0 mm
04:20 AM 33.2°F0.7°C 17.5°F-8.1°C 52% 13.0 mph WSW20.9 kmh WSW 13.0 mph20.9 kmh 29.60 in1002.4 mb 0.00 in0.0 mm 0.00 in0.0 mm 0.00 in0.0 mm
04:25 AM 33.1°F0.6°C 17.4°F-8.1°C 52% 9.0 mph SW14.5 kmh SW 20.0 mph32.2 kmh 29.59 in1002.0 mb 0.00 in0.0 mm 0.00 in0.0 mm 0.00 in0.0 mm
04:30 AM 33.1°F0.6°C 17.4°F-8.1°C 52% 6.0 mph SW9.7 kmh SW 14.0 mph22.5 kmh 29.59 in1002.0 mb 0.00 in0.0 mm 0.00 in0.0 mm 0.00 in0.0 mm
04:35 AM 32.9°F0.5°C 18.0°F-7.8°C 54% 8.0 mph WSW12.9 kmh WSW 15.0 mph24.1 kmh 29.59 in1002.0 mb 0.00 in0.0 mm 0.00 in0.0 mm 0.00 in0.0 mm
04:40 AM 32.8°F0.4°C 18.0°F-7.8°C 54% 11.0 mph SSW17.7 kmh SSW 13.0 mph20.9 kmh 29.58 in1001.7 mb 0.00 in0.0 mm 0.00 in0.0 mm 0.00 in0.0 mm
04:45 AM 32.8°F0.4°C 18.0°F-7.8°C 54% 8.0 mph SSW12.9 kmh SSW 17.0 mph27.4 kmh 29.58 in1001.7 mb 0.00 in0.0 mm 0.00 in0.0 mm 0.00 in0.0 mm
04:50 AM 32.7°F0.4°C 18.7°F-7.4°C 56% 18.0 mph SW29.0 kmh SW 23.0 mph37.0 kmh 29.57 in1001.4 mb 0.00 in0.0 mm 0.00 in0.0 mm 0.00 in0.0 mm
04:55 AM 32.3°F0.2°C 18.7°F-7.4°C 57% 10.0 mph SW16.1 kmh SW 21.0 mph33.8 kmh 29.57 in1001.4 mb 0.00 in0.0 mm 0.00 in0.0 mm 0.00 in0.0 mm
05:00 AM 31.9°F-0.1°C 19.2°F-7.1°C 59% 6.0 mph SW9.7 kmh SW 18.0 mph29.0 kmh 29.57 in1001.4 mb 0.00 in0.0 mm 0.00 in0.0 mm 0.00 in0.0 mm
05:05 AM 31.5°F-0.3°C 19.6°F-6.9°C 61% 6.0 mph SW9.7 kmh SW 19.0 mph30.6 kmh 29.57 in1001.4 mb 0.00 in0.0 mm 0.00 in0.0 mm 0.00 in0.0 mm
05:10 AM 31.3°F-0.4°C 19.8°F-6.8°C 62% 11.0 mph SW17.7 kmh SW 15.0 mph24.1 kmh 29.57 in1001.4 mb 0.00 in0.0 mm 0.00 in0.0 mm 0.00 in0.0 mm
05:15 AM 31.3°F-0.4°C 20.1°F-6.6°C 63% 5.0 mph WSW8.0 kmh WSW 14.0 mph22.5 kmh 29.57 in1001.4 mb 0.00 in0.0 mm 0.00 in0.0 mm 0.00 in0.0 mm
05:20 AM 31.1°F-0.5°C 19.9°F-6.7°C 63% 3.0 mph WSW4.8 kmh WSW 13.0 mph20.9 kmh 29.57 in1001.4 mb 0.00 in0.0 mm 0.00 in0.0 mm 0.00 in0.0 mm
05:25 AM 31.1°F-0.5°C 19.9°F-6.7°C 63% 3.0 mph SW4.8 kmh SW 11.0 mph17.7 kmh 29.57 in1001.4 mb 0.00 in0.0 mm 0.00 in0.0 mm 0.00 in0.0 mm
05:30 AM 31.1°F-0.5°C 19.6°F-6.9°C 62% 7.0 mph SW11.3 kmh SW 14.0 mph22.5 kmh 29.56 in1001.0 mb 0.00 in0.0 mm 0.00 in0.0 mm 0.00 in0.0 mm
05:35 AM 31.3°F-0.4°C 19.4°F-7.0°C 61% 3.0 mph SW4.8 kmh SW 15.0 mph24.1 kmh 29.56 in1001.0 mb 0.00 in0.0 mm 0.00 in0.0 mm 0.00 in0.0 mm
05:40 AM 31.3°F-0.4°C 19.8°F-6.8°C 62% 6.0 mph SSW9.7 kmh SSW 9.0 mph14.5 kmh 29.56 in1001.0 mb 0.00 in0.0 mm 0.00 in0.0 mm 0.00 in0.0 mm
05:45 AM 31.1°F-0.5°C 19.6°F-6.9°C 62% 6.0 mph SSW9.7 kmh SSW 9.0 mph14.5 kmh 29.56 in1001.0 mb 0.00 in0.0 mm 0.00 in0.0 mm 0.00 in0.0 mm
05:50 AM 31.1°F-0.5°C 19.9°F-6.7°C 63% 1.0 mph SW1.6 kmh SW 7.0 mph11.3 kmh 29.57 in1001.4 mb 0.00 in0.0 mm 0.00 in0.0 mm 0.00 in0.0 mm
05:55 AM 30.9°F-0.6°C 19.8°F-6.8°C 63% 4.0 mph SSW6.4 kmh SSW 7.0 mph11.3 kmh 29.57 in1001.4 mb 0.00 in0.0 mm 0.00 in0.0 mm 0.00 in0.0 mm
06:00 AM 30.8°F-0.7°C 20.4°F-6.4°C 65% 4.0 mph SW6.4 kmh SW 8.0 mph12.9 kmh 29.57 in1001.4 mb 0.00 in0.0 mm 0.00 in0.0 mm 0.00 in0.0 mm
06:05 AM 30.5°F-0.8°C 20.5°F-6.4°C 66% Calm Calm 8.0 mph12.9 kmh 29.57 in1001.4 mb 0.00 in0.0 mm 0.00 in0.0 mm 0.00 in0.0 mm
06:10 AM 30.4°F-0.9°C 20.4°F-6.4°C 66% 1.0 mph SSW1.6 kmh SSW 7.0 mph11.3 kmh 29.57 in1001.4 mb 0.00 in0.0 mm 0.00 in0.0 mm 0.00 in0.0 mm
06:15 AM 30.3°F-0.9°C 20.6°F-6.3°C 67% 1.0 mph S1.6 kmh S 3.0 mph4.8 kmh 29.57 in1001.4 mb 0.00 in0.0 mm 0.00 in0.0 mm 0.00 in0.0 mm
06:20 AM 30.3°F-0.9°C 20.3°F-6.5°C 66% 3.0 mph S4.8 kmh S 5.0 mph8.0 kmh 29.56 in1001.0 mb 0.00 in0.0 mm 0.00 in0.0 mm 0.00 in0.0 mm
06:25 AM 30.3°F-0.9°C 20.6°F-6.3°C 67% 2.0 mph SE3.2 kmh SE 4.0 mph6.4 kmh 29.56 in1001.0 mb 0.00 in0.0 mm 0.00 in0.0 mm 0.00 in0.0 mm
06:30 AM 30.2°F-1.0°C 20.9°F-6.2°C 68% 2.0 mph S3.2 kmh S 5.0 mph8.0 kmh 29.56 in1001.0 mb 0.00 in0.0 mm 0.00 in0.0 mm 0.00 in0.0 mm
06:35 AM 30.0°F-1.1°C 20.7°F-6.3°C 68% Calm Calm 5.0 mph8.0 kmh 29.56 in1001.0 mb 0.00 in0.0 mm 0.00 in0.0 mm 0.00 in0.0 mm
06:40 AM 29.9°F-1.2°C 20.2°F-6.6°C 67% 8.0 mph S12.9 kmh S 8.0 mph12.9 kmh 29.56 in1001.0 mb 0.00 in0.0 mm 0.00 in0.0 mm 0.00 in0.0 mm
06:45 AM 29.9°F-1.2°C 20.2°F-6.6°C 67% 5.0 mph SW8.0 kmh SW 7.0 mph11.3 kmh 29.56 in1001.0 mb 0.00 in0.0 mm 0.00 in0.0 mm 0.00 in0.0 mm
06:50 AM 29.9°F-1.2°C 20.6°F-6.3°C 68% 5.0 mph S8.0 kmh S 6.0 mph9.7 kmh 29.55 in1000.7 mb 0.00 in0.0 mm 0.00 in0.0 mm 0.00 in0.0 mm
06:55 AM 29.7°F-1.3°C 20.7°F-6.3°C 69% 1.0 mph SW1.6 kmh SW 4.0 mph6.4 kmh 29.56 in1001.0 mb 0.00 in0.0 mm 0.00 in0.0 mm 0.00 in0.0 mm
07:00 AM 29.6°F-1.3°C 21.0°F-6.1°C 70% 2.0 mph SW3.2 kmh SW 4.0 mph6.4 kmh 29.55 in1000.7 mb 0.00 in0.0 mm 0.00 in0.0 mm 0.00 in0.0 mm
07:05 AM 29.4°F-1.4°C 20.8°F-6.2°C 70% 6.0 mph SSW9.7 kmh SSW 7.0 mph11.3 kmh 29.56 in1001.0 mb 0.00 in0.0 mm 0.00 in0.0 mm 0.00 in0.0 mm
07:10 AM 29.4°F-1.4°C 21.1°F-6.1°C 71% 1.0 mph WSW1.6 kmh WSW 6.0 mph9.7 kmh 29.56 in1001.0 mb 0.00 in0.0 mm 0.00 in0.0 mm 0.00 in0.0 mm
07:15 AM 29.3°F-1.5°C 20.4°F-6.4°C 69% 1.0 mph SSW1.6 kmh SSW 9.0 mph14.5 kmh 29.55 in1000.7 mb 0.00 in0.0 mm 0.00 in0.0 mm 0.00 in0.0 mm
07:20 AM 29.6°F-1.3°C 20.0°F-6.7°C 67% 4.0 mph WSW6.4 kmh WSW 11.0 mph17.7 kmh 29.55 in1000.7 mb 0.00 in0.0 mm 0.00 in0.0 mm 0.00 in0.0 mm
07:25 AM 29.8°F-1.2°C 18.7°F-7.4°C 63% 7.0 mph SW11.3 kmh SW 13.0 mph20.9 kmh 29.55 in1000.7 mb 0.00 in0.0 mm 0.00 in0.0 mm 0.00 in0.0 mm
07:30 AM 29.8°F-1.2°C 18.7°F-7.4°C 63% 11.0 mph SW17.7 kmh SW 14.0 mph22.5 kmh 29.55 in1000.7 mb 0.00 in0.0 mm 0.00 in0.0 mm 0.00 in0.0 mm
07:35 AM 29.8°F-1.2°C 18.0°F-7.8°C 61% 4.0 mph WSW6.4 kmh WSW 14.0 mph22.5 kmh 29.55 in1000.7 mb 0.00 in0.0 mm 0.00 in0.0 mm 0.00 in0.0 mm
07:40 AM 29.8°F-1.2°C 18.0°F-7.8°C 61% 9.0 mph WSW14.5 kmh WSW 15.0 mph24.1 kmh 29.55 in1000.7 mb 0.00 in0.0 mm 0.00 in0.0 mm 0.00 in0.0 mm
07:45 AM 29.7°F-1.3°C 18.2°F-7.7°C 62% 7.0 mph SW11.3 kmh SW 13.0 mph20.9 kmh 29.55 in1000.7 mb 0.00 in0.0 mm 0.00 in0.0 mm 0.00 in0.0 mm
07:50 AM 29.6°F-1.3°C 18.2°F-7.7°C 62% 7.0 mph SW11.3 kmh SW 17.0 mph27.4 kmh 29.54 in1000.3 mb 0.00 in0.0 mm 0.00 in0.0 mm 0.00 in0.0 mm
07:55 AM 29.6°F-1.3°C 18.2°F-7.7°C 62% 3.0 mph WSW4.8 kmh WSW 14.0 mph22.5 kmh 29.55 in1000.7 mb 0.00 in0.0 mm 0.00 in0.0 mm 0.00 in0.0 mm
08:00 AM 29.5°F-1.4°C 18.1°F-7.7°C 62% 2.0 mph SSW3.2 kmh SSW 12.0 mph19.3 kmh 29.55 in1000.7 mb 0.00 in0.0 mm 0.00 in0.0 mm 0.00 in0.0 mm
08:05 AM 29.3°F-1.5°C 18.2°F-7.7°C 63% 4.0 mph WSW6.4 kmh WSW 9.0 mph14.5 kmh 29.55 in1000.7 mb 0.00 in0.0 mm 0.00 in0.0 mm 0.00 in0.0 mm
08:10 AM 29.2°F-1.6°C 18.1°F-7.7°C 63% 3.0 mph WSW4.8 kmh WSW 8.0 mph12.9 kmh 29.55 in1000.7 mb 0.00 in0.0 mm 0.00 in0.0 mm 0.00 in0.0 mm
08:15 AM 29.3°F-1.5°C 18.2°F-7.7°C 63% 5.0 mph WSW8.0 kmh WSW 10.0 mph16.1 kmh 29.55 in1000.7 mb 0.00 in0.0 mm 0.00 in0.0 mm 0.00 in0.0 mm
08:20 AM 29.2°F-1.6°C 18.1°F-7.7°C 63% 3.0 mph WSW4.8 kmh WSW 11.0 mph17.7 kmh 29.55 in1000.7 mb 0.00 in0.0 mm 0.00 in0.0 mm 0.00 in0.0 mm
08:25 AM 29.2°F-1.6°C 18.1°F-7.7°C 63% 5.0 mph SW8.0 kmh SW 11.0 mph17.7 kmh 29.55 in1000.7 mb 0.00 in0.0 mm 0.00 in0.0 mm 0.00 in0.0 mm
08:30 AM 29.0°F-1.7°C 18.0°F-7.8°C 63% 4.0 mph SSW6.4 kmh SSW 13.0 mph20.9 kmh 29.55 in1000.7 mb 0.00 in0.0 mm 0.00 in0.0 mm 0.00 in0.0 mm
08:35 AM 28.9°F-1.7°C 17.9°F-7.8°C 63% 7.0 mph SW11.3 kmh SW 11.0 mph17.7 kmh 29.56 in1001.0 mb 0.00 in0.0 mm 0.00 in0.0 mm 0.00 in0.0 mm
08:40 AM 28.8°F-1.8°C 18.5°F-7.5°C 65% 5.0 mph SW8.0 kmh SW 7.0 mph11.3 kmh 29.56 in1001.0 mb 0.00 in0.0 mm 0.00 in0.0 mm 0.00 in0.0 mm
08:45 AM 28.6°F-1.9°C 18.3°F-7.6°C 65% 8.0 mph WSW12.9 kmh WSW 11.0 mph17.7 kmh 29.56 in1001.0 mb 0.00 in0.0 mm 0.00 in0.0 mm 0.00 in0.0 mm
08:50 AM 28.3°F-2.1°C 18.7°F-7.4°C 67% 8.0 mph WSW12.9 kmh WSW 10.0 mph16.1 kmh 29.55 in1000.7 mb 0.00 in0.0 mm 0.00 in0.0 mm 0.00 in0.0 mm
08:55 AM 28.1°F-2.2°C 18.5°F-7.5°C 67% 3.0 mph SW4.8 kmh SW 12.0 mph19.3 kmh 29.56 in1001.0 mb 0.00 in0.0 mm 0.00 in0.0 mm 0.00 in0.0 mm
09:00 AM 28.0°F-2.2°C 19.5°F-6.9°C 70% 7.0 mph SSW11.3 kmh SSW 9.0 mph14.5 kmh 29.56 in1001.0 mb 0.00 in0.0 mm 0.00 in0.0 mm 0.00 in0.0 mm
09:05 AM 27.7°F-2.4°C 19.5°F-6.9°C 71% 3.0 mph WSW4.8 kmh WSW 10.0 mph16.1 kmh 29.56 in1001.0 mb 0.00 in0.0 mm 0.00 in0.0 mm 0.00 in0.0 mm
09:10 AM 27.5°F-2.5°C 20.0°F-6.7°C 73% 7.0 mph SW11.3 kmh SW 9.0 mph14.5 kmh 29.56 in1001.0 mb 0.00 in0.0 mm 0.00 in0.0 mm 0.00 in0.0 mm
09:15 AM 27.3°F-2.6°C 20.4°F-6.4°C 75% 4.0 mph SW6.4 kmh SW 8.0 mph12.9 kmh 29.56 in1001.0 mb 0.00 in0.0 mm 0.00 in0.0 mm 0.00 in0.0 mm
09:20 AM 27.1°F-2.7°C 20.8°F-6.2°C 77% 3.0 mph SW4.8 kmh SW 9.0 mph14.5 kmh 29.57 in1001.4 mb 0.00 in0.0 mm 0.00 in0.0 mm 0.00 in0.0 mm
09:25 AM 26.8°F-2.9°C 20.8°F-6.2°C 78% 6.0 mph SSW9.7 kmh SSW 8.0 mph12.9 kmh 29.57 in1001.4 mb 0.00 in0.0 mm 0.00 in0.0 mm 0.00 in0.0 mm
09:30 AM 26.5°F-3.1°C 20.5°F-6.4°C 78% 7.0 mph SW11.3 kmh SW 10.0 mph16.1 kmh 29.58 in1001.7 mb 0.00 in0.0 mm 0.00 in0.0 mm 0.00 in0.0 mm
09:35 AM 26.2°F-3.2°C 20.8°F-6.2°C 80% 2.0 mph SW3.2 kmh SW 7.0 mph11.3 kmh 29.58 in1001.7 mb 0.00 in0.0 mm 0.00 in0.0 mm 0.00 in0.0 mm
09:40 AM 25.9°F-3.4°C 20.8°F-6.2°C 81% 3.0 mph SSW4.8 kmh SSW 12.0 mph19.3 kmh 29.58 in1001.7 mb 0.00 in0.0 mm 0.00 in0.0 mm 0.00 in0.0 mm
09:45 AM 25.6°F-3.6°C 21.1°F-6.1°C 83% 4.0 mph SW6.4 kmh SW 11.0 mph17.7 kmh 29.58 in1001.7 mb 0.00 in0.0 mm 0.00 in0.0 mm 0.00 in0.0 mm
09:50 AM 25.3°F-3.7°C 21.1°F-6.1°C 84% 6.0 mph SW9.7 kmh SW 10.0 mph16.1 kmh 29.58 in1001.7 mb 0.00 in0.0 mm 0.00 in0.0 mm 0.00 in0.0 mm
09:55 AM 25.3°F-3.7°C 20.0°F-6.7°C 80% 5.0 mph WSW8.0 kmh WSW 29.0 mph46.7 kmh 29.58 in1001.7 mb 0.00 in0.0 mm 0.00 in0.0 mm 0.00 in0.0 mm
10:00 AM 25.3°F-3.7°C 20.0°F-6.7°C 80% 10.0 mph SW16.1 kmh SW 14.0 mph22.5 kmh 29.57 in1001.4 mb 0.00 in0.0 mm 0.00 in0.0 mm 0.00 in0.0 mm
10:05 AM 25.3°F-3.7°C 20.3°F-6.5°C 81% 5.0 mph SW8.0 kmh SW 12.0 mph19.3 kmh 29.58 in1001.7 mb 0.00 in0.0 mm 0.00 in0.0 mm 0.00 in0.0 mm
10:10 AM 25.3°F-3.7°C 19.4°F-7.0°C 78% 9.0 mph S14.5 kmh S 15.0 mph24.1 kmh 29.57 in1001.4 mb 0.00 in0.0 mm 0.00 in0.0 mm 0.00 in0.0 mm
10:15 AM 25.3°F-3.7°C 19.4°F-7.0°C 78% 3.0 mph WSW4.8 kmh WSW 16.0 mph25.7 kmh 29.57 in1001.4 mb 0.00 in0.0 mm 0.00 in0.0 mm 0.00 in0.0 mm
10:20 AM 25.3°F-3.7°C 19.1°F-7.2°C 77% 6.0 mph SW9.7 kmh SW 17.0 mph27.4 kmh 29.57 in1001.4 mb 0.00 in0.0 mm 0.00 in0.0 mm 0.00 in0.0 mm
10:25 AM 25.2°F-3.8°C 19.3°F-7.1°C 78% 5.0 mph SW8.0 kmh SW 14.0 mph22.5 kmh 29.57 in1001.4 mb 0.00 in0.0 mm 0.00 in0.0 mm 0.00 in0.0 mm
10:30 AM 25.1°F-3.8°C 19.5°F-6.9°C 79% 3.0 mph SW4.8 kmh SW 17.0 mph27.4 kmh 29.57 in1001.4 mb 0.00 in0.0 mm 0.00 in0.0 mm 0.00 in0.0 mm
10:35 AM 24.9°F-3.9°C 19.6°F-6.9°C 80% 8.0 mph WSW12.9 kmh WSW 15.0 mph24.1 kmh 29.57 in1001.4 mb 0.00 in0.0 mm 0.00 in0.0 mm 0.00 in0.0 mm
10:40 AM 24.8°F-4.0°C 19.5°F-6.9°C 80% 9.0 mph SSW14.5 kmh SSW 15.0 mph24.1 kmh 29.57 in1001.4 mb 0.00 in0.0 mm 0.00 in0.0 mm 0.00 in0.0 mm
10:45 AM 24.7°F-4.1°C 19.4°F-7.0°C 80% 6.0 mph WSW9.7 kmh WSW 16.0 mph25.7 kmh 29.57 in1001.4 mb 0.00 in0.0 mm 0.00 in0.0 mm 0.00 in0.0 mm
10:50 AM 24.6°F-4.1°C 19.3°F-7.1°C 80% 7.0 mph SSW11.3 kmh SSW 13.0 mph20.9 kmh 29.57 in1001.4 mb 0.00 in0.0 mm 0.00 in0.0 mm 0.00 in0.0 mm
10:55 AM 24.4°F-4.2°C 18.8°F-7.3°C 79% 9.0 mph SW14.5 kmh SW 15.0 mph24.1 kmh 29.57 in1001.4 mb 0.00 in0.0 mm 0.00 in0.0 mm 0.00 in0.0 mm
11:00 AM 24.3°F-4.3°C 18.7°F-7.4°C 79% 7.0 mph SW11.3 kmh SW 14.0 mph22.5 kmh 29.56 in1001.0 mb 0.00 in0.0 mm 0.00 in0.0 mm 0.00 in0.0 mm
11:05 AM 24.2°F-4.3°C 18.6°F-7.4°C 79% 5.0 mph SW8.0 kmh SW 13.0 mph20.9 kmh 29.56 in1001.0 mb 0.00 in0.0 mm 0.00 in0.0 mm 0.00 in0.0 mm
11:10 AM 24.3°F-4.3°C 18.4°F-7.6°C 78% 7.0 mph WSW11.3 kmh WSW 13.0 mph20.9 kmh 29.56 in1001.0 mb 0.00 in0.0 mm 0.00 in0.0 mm 0.00 in0.0 mm
11:15 AM 24.4°F-4.2°C 17.9°F-7.8°C 76% 12.0 mph SW19.3 kmh SW 15.0 mph24.1 kmh 29.56 in1001.0 mb 0.00 in0.0 mm 0.00 in0.0 mm 0.00 in0.0 mm
11:20 AM 24.6°F-4.1°C 18.1°F-7.7°C 76% 9.0 mph WSW14.5 kmh WSW 16.0 mph25.7 kmh 29.56 in1001.0 mb 0.00 in0.0 mm 0.00 in0.0 mm 0.00 in0.0 mm
11:25 AM 24.8°F-4.0°C 17.7°F-7.9°C 74% 6.0 mph WSW9.7 kmh WSW 17.0 mph27.4 kmh 29.56 in1001.0 mb 0.00 in0.0 mm 0.00 in0.0 mm 0.00 in0.0 mm
11:30 AM 24.9°F-3.9°C 16.5°F-8.6°C 70% 12.0 mph WSW19.3 kmh WSW 19.0 mph30.6 kmh 29.55 in1000.7 mb 0.00 in0.0 mm 0.00 in0.0 mm 0.00 in0.0 mm
11:35 AM 25.1°F-3.8°C 16.7°F-8.5°C 70% 3.0 mph SW4.8 kmh SW 16.0 mph25.7 kmh 29.55 in1000.7 mb 0.00 in0.0 mm 0.00 in0.0 mm 0.00 in0.0 mm
11:40 AM 25.2°F-3.8°C 16.8°F-8.4°C 70% 4.0 mph SSW6.4 kmh SSW 12.0 mph19.3 kmh 29.56 in1001.0 mb 0.00 in0.0 mm 0.00 in0.0 mm 0.00 in0.0 mm
11:45 AM 25.2°F-3.8°C 16.4°F-8.7°C 69% 13.0 mph WSW20.9 kmh WSW 15.0 mph24.1 kmh 29.56 in1001.0 mb 0.00 in0.0 mm 0.00 in0.0 mm 0.00 in0.0 mm
11:50 AM 25.1°F-3.8°C 16.3°F-8.7°C 69% 5.0 mph SW8.0 kmh SW 14.0 mph22.5 kmh 29.55 in1000.7 mb 0.00 in0.0 mm 0.00 in0.0 mm 0.00 in0.0 mm
11:55 AM 24.9°F-3.9°C 16.1°F-8.8°C 69% 11.0 mph WSW17.7 kmh WSW 17.0 mph27.4 kmh 29.55 in1000.7 mb 0.00 in0.0 mm 0.00 in0.0 mm 0.00 in0.0 mm
12:00 PM 24.6°F-4.1°C 15.9°F-8.9°C 69% 14.0 mph WSW22.5 kmh WSW 18.0 mph29.0 kmh 29.55 in1000.7 mb 0.00 in0.0 mm 0.00 in0.0 mm 0.00 in0.0 mm
12:05 PM 24.4°F-4.2°C 16.0°F-8.9°C 70% 17.0 mph SW27.4 kmh SW 22.0 mph35.4 kmh 29.54 in1000.3 mb 0.00 in0.0 mm 0.00 in0.0 mm 0.00 in0.0 mm
12:10 PM 24.3°F-4.3°C 15.9°F-8.9°C 70% 6.0 mph SW9.7 kmh SW 20.0 mph32.2 kmh 29.54 in1000.3 mb 0.00 in0.0 mm 0.00 in0.0 mm 0.00 in0.0 mm
12:15 PM 24.5°F-4.2°C 15.8°F-9.0°C 69% 5.0 mph SSW8.0 kmh SSW 18.0 mph29.0 kmh 29.54 in1000.3 mb 0.00 in0.0 mm 0.00 in0.0 mm 0.00 in0.0 mm
12:20 PM 24.4°F-4.2°C 16.0°F-8.9°C 70% 12.0 mph SSW19.3 kmh SSW 16.0 mph25.7 kmh 29.54 in1000.3 mb 0.00 in0.0 mm 0.00 in0.0 mm 0.00 in0.0 mm
12:25 PM 24.6°F-4.1°C 15.2°F-9.3°C 67% 9.0 mph WSW14.5 kmh WSW 17.0 mph27.4 kmh 29.53 in1000.0 mb 0.00 in0.0 mm 0.00 in0.0 mm 0.00 in0.0 mm
12:30 PM 25.5°F-3.6°C 15.0°F-9.4°C 64% 3.0 mph SW4.8 kmh SW 14.0 mph22.5 kmh 29.53 in1000.0 mb 0.00 in0.0 mm 0.00 in0.0 mm 0.00 in0.0 mm
12:35 PM 26.3°F-3.2°C 13.1°F-10.5°C 57% 17.0 mph WSW27.4 kmh WSW 27.0 mph43.5 kmh 29.52 in999.7 mb 0.00 in0.0 mm 0.00 in0.0 mm 0.00 in0.0 mm
12:40 PM 26.9°F-2.8°C 11.2°F-11.6°C 51% 17.0 mph W27.4 kmh W 32.0 mph51.5 kmh 29.52 in999.7 mb 0.00 in0.0 mm 0.00 in0.0 mm 0.00 in0.0 mm
12:45 PM 27.4°F-2.6°C 10.7°F-11.8°C 49% 8.0 mph SSW12.9 kmh SSW 22.0 mph35.4 kmh 29.53 in1000.0 mb 0.00 in0.0 mm 0.00 in0.0 mm 0.00 in0.0 mm
12:50 PM 27.6°F-2.4°C 9.5°F-12.5°C 46% 12.0 mph WSW19.3 kmh WSW 26.0 mph41.8 kmh 29.52 in999.7 mb 0.00 in0.0 mm 0.00 in0.0 mm 0.00 in0.0 mm
12:55 PM 27.4°F-2.6°C 9.3°F-12.6°C 46% 13.0 mph WSW20.9 kmh WSW 31.0 mph49.9 kmh 29.52 in999.7 mb 0.00 in0.0 mm 0.00 in0.0 mm 0.00 in0.0 mm
01:00 PM 27.1°F-2.7°C 9.1°F-12.7°C 46% 20.0 mph WSW32.2 kmh WSW 29.0 mph46.7 kmh 29.52 in999.7 mb 0.00 in0.0 mm 0.00 in0.0 mm 0.00 in0.0 mm
01:05 PM 26.8°F-2.9°C 10.2°F-12.1°C 49% 7.0 mph WSW11.3 kmh WSW 19.0 mph30.6 kmh 29.52 in999.7 mb 0.00 in0.0 mm 0.00 in0.0 mm 0.00 in0.0 mm
01:10 PM 27.2°F-2.7°C 9.1°F-12.7°C 46% 10.0 mph WSW16.1 kmh WSW 17.0 mph27.4 kmh 29.52 in999.7 mb 0.00 in0.0 mm 0.00 in0.0 mm 0.00 in0.0 mm
01:15 PM 27.6°F-2.4°C 8.5°F-13.1°C 44% 13.0 mph WSW20.9 kmh WSW 22.0 mph35.4 kmh 29.51 in999.3 mb 0.00 in0.0 mm 0.00 in0.0 mm 0.00 in0.0 mm
01:20 PM 27.5°F-2.5°C 8.4°F-13.1°C 44% 13.0 mph W20.9 kmh W 28.0 mph45.1 kmh 29.51 in999.3 mb 0.00 in0.0 mm 0.00 in0.0 mm 0.00 in0.0 mm
01:25 PM 27.2°F-2.7°C 8.2°F-13.2°C 44% 10.0 mph SSW16.1 kmh SSW 23.0 mph37.0 kmh 29.51 in999.3 mb 0.00 in0.0 mm 0.00 in0.0 mm 0.00 in0.0 mm
01:30 PM 27.1°F-2.7°C 9.1°F-12.7°C 46% 11.0 mph WSW17.7 kmh WSW 24.0 mph38.6 kmh 29.51 in999.3 mb 0.00 in0.0 mm 0.00 in0.0 mm 0.00 in0.0 mm
01:35 PM 27.1°F-2.7°C 9.5°F-12.5°C 47% 13.0 mph W20.9 kmh W 23.0 mph37.0 kmh 29.51 in999.3 mb 0.00 in0.0 mm 0.00 in0.0 mm 0.00 in0.0 mm
01:40 PM 26.9°F-2.8°C 9.3°F-12.6°C 47% 18.0 mph WSW29.0 kmh WSW 29.0 mph46.7 kmh 29.52 in999.7 mb 0.00 in0.0 mm 0.00 in0.0 mm 0.00 in0.0 mm
01:45 PM 26.1°F-3.3°C 10.0°F-12.2°C 50% 9.0 mph WSW14.5 kmh WSW 25.0 mph40.2 kmh 29.52 in999.7 mb 0.00 in0.0 mm 0.00 in0.0 mm 0.00 in0.0 mm
01:50 PM 24.9°F-3.9°C 11.8°F-11.2°C 57% 12.0 mph WSW19.3 kmh WSW 30.0 mph48.3 kmh 29.53 in1000.0 mb 0.00 in0.0 mm 0.00 in0.0 mm 0.00 in0.0 mm
01:55 PM 24.5°F-4.2°C 12.2°F-11.0°C 59% 2.0 mph SW3.2 kmh SW 21.0 mph33.8 kmh 29.53 in1000.0 mb 0.00 in0.0 mm 0.00 in0.0 mm 0.00 in0.0 mm
02:00 PM 24.4°F-4.2°C 12.9°F-10.6°C 61% 6.0 mph W9.7 kmh W 12.0 mph19.3 kmh 29.54 in1000.3 mb 0.00 in0.0 mm 0.00 in0.0 mm 0.00 in0.0 mm
02:05 PM 24.0°F-4.4°C 13.2°F-10.4°C 63% 2.0 mph W3.2 kmh W 9.0 mph14.5 kmh 29.54 in1000.3 mb 0.00 in0.0 mm 0.00 in0.0 mm 0.00 in0.0 mm
02:10 PM 23.6°F-4.7°C 13.9°F-10.1°C 66% 4.0 mph NW6.4 kmh NW 10.0 mph16.1 kmh 29.54 in1000.3 mb 0.00 in0.0 mm 0.00 in0.0 mm 0.00 in0.0 mm
02:15 PM 23.3°F-4.8°C 13.6°F-10.2°C 66% 2.0 mph W3.2 kmh W 7.0 mph11.3 kmh 29.54 in1000.3 mb 0.00 in0.0 mm 0.00 in0.0 mm 0.00 in0.0 mm
02:20 PM 23.1°F-4.9°C 13.7°F-10.2°C 67% 6.0 mph W9.7 kmh W 9.0 mph14.5 kmh 29.55 in1000.7 mb 0.00 in0.0 mm 0.00 in0.0 mm 0.00 in0.0 mm
02:25 PM 22.6°F-5.2°C 14.6°F-9.7°C 71% 3.0 mph WSW4.8 kmh WSW 10.0 mph16.1 kmh 29.54 in1000.3 mb 0.00 in0.0 mm 0.00 in0.0 mm 0.00 in0.0 mm
02:30 PM 22.3°F-5.4°C 15.2°F-9.3°C 74% 3.0 mph WSW4.8 kmh WSW 12.0 mph19.3 kmh 29.55 in1000.7 mb 0.00 in0.0 mm 0.00 in0.0 mm 0.00 in0.0 mm
02:35 PM 21.7°F-5.7°C 15.9°F-8.9°C 78% 1.0 mph W1.6 kmh W 9.0 mph14.5 kmh 29.55 in1000.7 mb 0.00 in0.0 mm 0.00 in0.0 mm 0.00 in0.0 mm
02:40 PM 21.4°F-5.9°C 15.6°F-9.1°C 78% 2.0 mph W3.2 kmh W 11.0 mph17.7 kmh 29.55 in1000.7 mb 0.00 in0.0 mm 0.00 in0.0 mm 0.00 in0.0 mm
02:45 PM 21.3°F-5.9°C 16.6°F-8.6°C 82% 4.0 mph WSW6.4 kmh WSW 6.0 mph9.7 kmh 29.55 in1000.7 mb 0.00 in0.0 mm 0.00 in0.0 mm 0.00 in0.0 mm
02:50 PM 21.1°F-6.1°C 16.2°F-8.8°C 81% 9.0 mph SW14.5 kmh SW 10.0 mph16.1 kmh 29.55 in1000.7 mb 0.00 in0.0 mm 0.00 in0.0 mm 0.00 in0.0 mm
02:55 PM 20.9°F-6.2°C 16.2°F-8.8°C 82% Calm Calm 9.0 mph14.5 kmh 29.56 in1001.0 mb 0.00 in0.0 mm 0.00 in0.0 mm 0.00 in0.0 mm
03:00 PM 20.8°F-6.2°C 16.7°F-8.5°C 84% 2.0 mph W3.2 kmh W 5.0 mph8.0 kmh 29.57 in1001.4 mb 0.00 in0.0 mm 0.00 in0.0 mm 0.00 in0.0 mm
03:05 PM 20.6°F-6.3°C 16.5°F-8.6°C 84% Calm Calm 4.0 mph6.4 kmh 29.57 in1001.4 mb 0.00 in0.0 mm 0.00 in0.0 mm 0.00 in0.0 mm
03:10 PM 20.3°F-6.5°C 16.2°F-8.8°C 84% Calm Calm 1.0 mph1.6 kmh 29.56 in1001.0 mb 0.00 in0.0 mm 0.00 in0.0 mm 0.00 in0.0 mm
03:15 PM 20.3°F-6.5°C 16.5°F-8.6°C 85% Calm Calm 1.0 mph1.6 kmh 29.57 in1001.4 mb 0.00 in0.0 mm 0.00 in0.0 mm 0.00 in0.0 mm
03:20 PM 20.2°F-6.6°C 16.4°F-8.7°C 85% Calm Calm 1.0 mph1.6 kmh 29.57 in1001.4 mb 0.00 in0.0 mm 0.00 in0.0 mm 0.00 in0.0 mm
03:25 PM 20.2°F-6.6°C 15.8°F-9.0°C 83% Calm Calm 3.0 mph4.8 kmh 29.57 in1001.4 mb 0.00 in0.0 mm 0.00 in0.0 mm 0.00 in0.0 mm
03:30 PM 20.1°F-6.6°C 15.2°F-9.3°C 81% 1.0 mph W1.6 kmh W 2.0 mph3.2 kmh 29.57 in1001.4 mb 0.00 in0.0 mm 0.00 in0.0 mm 0.00 in0.0 mm
03:35 PM 20.0°F-6.7°C 14.8°F-9.6°C 80% 1.0 mph WSW1.6 kmh WSW 2.0 mph3.2 kmh 29.57 in1001.4 mb 0.00 in0.0 mm 0.00 in0.0 mm 0.00 in0.0 mm
03:40 PM 20.0°F-6.7°C 14.8°F-9.6°C 80% Calm Calm 2.0 mph3.2 kmh 29.58 in1001.7 mb 0.00 in0.0 mm 0.00 in0.0 mm 0.00 in0.0 mm
03:45 PM 19.8°F-6.8°C 14.6°F-9.7°C 80% 1.0 mph WSW1.6 kmh WSW 4.0 mph6.4 kmh 29.57 in1001.4 mb 0.00 in0.0 mm 0.00 in0.0 mm 0.00 in0.0 mm
03:50 PM 19.0°F-7.2°C 13.5°F-10.3°C 79% 2.0 mph WNW3.2 kmh WNW 4.0 mph6.4 kmh 29.58 in1001.7 mb 0.00 in0.0 mm 0.00 in0.0 mm 0.00 in0.0 mm
03:55 PM 18.0°F-7.8°C 12.6°F-10.8°C 79% 2.0 mph NW3.2 kmh NW 8.0 mph12.9 kmh 29.58 in1001.7 mb 0.00 in0.0 mm 0.00 in0.0 mm 0.00 in0.0 mm
04:00 PM 17.1°F-8.3°C 12.0°F-11.1°C 80% Calm Calm 5.0 mph8.0 kmh 29.58 in1001.7 mb 0.00 in0.0 mm 0.00 in0.0 mm 0.00 in0.0 mm
04:05 PM 16.4°F-8.7°C 11.0°F-11.7°C 79% Calm Calm 5.0 mph8.0 kmh 29.58 in1001.7 mb 0.00 in0.0 mm 0.00 in0.0 mm 0.00 in0.0 mm
04:10 PM 16.1°F-8.8°C 11.0°F-11.7°C 80% Calm Calm 2.0 mph3.2 kmh 29.59 in1002.0 mb 0.00 in0.0 mm 0.00 in0.0 mm 0.00 in0.0 mm
04:15 PM 15.7°F-9.1°C 10.3°F-12.1°C 79% 1.0 mph WSW1.6 kmh WSW 4.0 mph6.4 kmh 29.59 in1002.0 mb 0.00 in0.0 mm 0.00 in0.0 mm 0.00 in0.0 mm
04:20 PM 15.2°F-9.3°C 9.5°F-12.5°C 78% 2.0 mph NW3.2 kmh NW 8.0 mph12.9 kmh 29.60 in1002.4 mb 0.00 in0.0 mm 0.00 in0.0 mm 0.00 in0.0 mm
04:25 PM 14.8°F-9.6°C 8.6°F-13.0°C 76% 3.0 mph NW4.8 kmh NW 9.0 mph14.5 kmh 29.60 in1002.4 mb 0.00 in0.0 mm 0.00 in0.0 mm 0.00 in0.0 mm
04:30 PM 14.5°F-9.7°C 8.6°F-13.0°C 77% 3.0 mph WNW4.8 kmh WNW 7.0 mph11.3 kmh 29.61 in1002.7 mb 0.00 in0.0 mm 0.00 in0.0 mm 0.00 in0.0 mm
04:35 PM 14.1°F-9.9°C 8.8°F-12.9°C 79% 1.0 mph WSW1.6 kmh WSW 7.0 mph11.3 kmh 29.61 in1002.7 mb 0.00 in0.0 mm 0.00 in0.0 mm 0.00 in0.0 mm
04:40 PM 14.0°F-10.0°C 7.2°F-13.8°C 74% 1.0 mph NW1.6 kmh NW 13.0 mph20.9 kmh 29.62 in1003.0 mb 0.00 in0.0 mm 0.00 in0.0 mm 0.00 in0.0 mm
04:45 PM 13.7°F-10.2°C 6.6°F-14.1°C 73% 2.0 mph W3.2 kmh W 8.0 mph12.9 kmh 29.61 in1002.7 mb 0.00 in0.0 mm 0.00 in0.0 mm 0.00 in0.0 mm
04:50 PM 13.5°F-10.3°C 5.5°F-14.7°C 70% 2.0 mph W3.2 kmh W 8.0 mph12.9 kmh 29.61 in1002.7 mb 0.00 in0.0 mm 0.00 in0.0 mm 0.00 in0.0 mm
04:55 PM 13.4°F-10.3°C 5.4°F-14.8°C 70% 3.0 mph W4.8 kmh W 10.0 mph16.1 kmh 29.62 in1003.0 mb 0.00 in0.0 mm 0.00 in0.0 mm 0.00 in0.0 mm
05:00 PM 13.1°F-10.5°C 4.2°F-15.4°C 67% Calm Calm 10.0 mph16.1 kmh 29.62 in1003.0 mb 0.00 in0.0 mm 0.00 in0.0 mm 0.00 in0.0 mm
05:05 PM 12.7°F-10.7°C 3.8°F-15.7°C 67% 3.0 mph W4.8 kmh W 7.0 mph11.3 kmh 29.62 in1003.0 mb 0.00 in0.0 mm 0.00 in0.0 mm 0.00 in0.0 mm
05:10 PM 12.6°F-10.8°C 3.7°F-15.7°C 67% 4.0 mph WNW6.4 kmh WNW 9.0 mph14.5 kmh 29.62 in1003.0 mb 0.00 in0.0 mm 0.00 in0.0 mm 0.00 in0.0 mm
05:15 PM 12.5°F-10.8°C 3.9°F-15.6°C 68% 5.0 mph NNW8.0 kmh NNW 9.0 mph14.5 kmh 29.63 in1003.4 mb 0.00 in0.0 mm 0.00 in0.0 mm 0.00 in0.0 mm
05:20 PM 12.5°F-10.8°C 3.9°F-15.6°C 68% Calm Calm 8.0 mph12.9 kmh 29.63 in1003.4 mb 0.00 in0.0 mm 0.00 in0.0 mm 0.00 in0.0 mm
05:25 PM 12.5°F-10.8°C 4.2°F-15.4°C 69% 1.0 mph WSW1.6 kmh WSW 8.0 mph12.9 kmh 29.63 in1003.4 mb 0.00 in0.0 mm 0.00 in0.0 mm 0.00 in0.0 mm
05:30 PM 12.5°F-10.8°C 4.6°F-15.2°C 70% Calm Calm 8.0 mph12.9 kmh 29.63 in1003.4 mb 0.00 in0.0 mm 0.00 in0.0 mm 0.00 in0.0 mm
05:35 PM 12.4°F-10.9°C 4.1°F-15.5°C 69% 2.0 mph W3.2 kmh W 8.0 mph12.9 kmh 29.63 in1003.4 mb 0.00 in0.0 mm 0.00 in0.0 mm 0.00 in0.0 mm
05:40 PM 12.4°F-10.9°C 3.5°F-15.8°C 67% 1.0 mph W1.6 kmh W 8.0 mph12.9 kmh 29.64 in1003.7 mb 0.00 in0.0 mm 0.00 in0.0 mm 0.00 in0.0 mm
05:45 PM 12.4°F-10.9°C 2.9°F-16.2°C 65% 1.0 mph NW1.6 kmh NW 9.0 mph14.5 kmh 29.64 in1003.7 mb 0.00 in0.0 mm 0.00 in0.0 mm 0.00 in0.0 mm
05:50 PM 12.1°F-11.1°C 2.6°F-16.3°C 65% 1.0 mph WNW1.6 kmh WNW 8.0 mph12.9 kmh 29.64 in1003.7 mb 0.00 in0.0 mm 0.00 in0.0 mm 0.00 in0.0 mm
05:55 PM 11.9°F-11.2°C 2.4°F-16.4°C 65% 2.0 mph NNW3.2 kmh NNW 10.0 mph16.1 kmh 29.65 in1004.1 mb 0.00 in0.0 mm 0.00 in0.0 mm 0.00 in0.0 mm
06:00 PM 11.6°F-11.3°C 1.8°F-16.8°C 64% 5.0 mph WNW8.0 kmh WNW 9.0 mph14.5 kmh 29.65 in1004.1 mb 0.00 in0.0 mm 0.00 in0.0 mm 0.00 in0.0 mm
06:05 PM 11.3°F-11.5°C 1.8°F-16.8°C 65% 4.0 mph W6.4 kmh W 8.0 mph12.9 kmh 29.66 in1004.4 mb 0.00 in0.0 mm 0.00 in0.0 mm 0.00 in0.0 mm
06:10 PM 10.9°F-11.7°C 1.4°F-17.0°C 65% 1.0 mph WSW1.6 kmh WSW 9.0 mph14.5 kmh 29.66 in1004.4 mb 0.00 in0.0 mm 0.00 in0.0 mm 0.00 in0.0 mm
06:15 PM 10.7°F-11.8°C 1.2°F-17.1°C 65% 6.0 mph NW9.7 kmh NW 10.0 mph16.1 kmh 29.66 in1004.4 mb 0.00 in0.0 mm 0.00 in0.0 mm 0.00 in0.0 mm
06:20 PM 10.4°F-12.0°C 0.6°F-17.4°C 64% 6.0 mph WNW9.7 kmh WNW 9.0 mph14.5 kmh 29.67 in1004.7 mb 0.00 in0.0 mm 0.00 in0.0 mm 0.00 in0.0 mm
06:25 PM 9.8°F-12.3°C 0.4°F-17.6°C 65% 8.0 mph W12.9 kmh W 8.0 mph12.9 kmh 29.67 in1004.7 mb 0.00 in0.0 mm 0.00 in0.0 mm 0.00 in0.0 mm
06:30 PM 9.7°F-12.4°C 0.3°F-17.6°C 65% 6.0 mph W9.7 kmh W 8.0 mph12.9 kmh 29.67 in1004.7 mb 0.00 in0.0 mm 0.00 in0.0 mm 0.00 in0.0 mm
06:35 PM 9.8°F-12.3°C 0.0°F-17.8°C 64% 8.0 mph NW12.9 kmh NW 11.0 mph17.7 kmh 29.67 in1004.7 mb 0.00 in0.0 mm 0.00 in0.0 mm 0.00 in0.0 mm
06:40 PM 9.3°F-12.6°C -5537.2°C 63% 1.0 mph W1.6 kmh W 10.0 mph16.1 kmh 29.67 in1004.7 mb 0.00 in0.0 mm 0.00 in0.0 mm 0.00 in0.0 mm
06:45 PM 8.9°F-12.8°C -5537.2°C 64% 4.0 mph W6.4 kmh W 11.0 mph17.7 kmh 29.68 in1005.1 mb 0.00 in0.0 mm 0.00 in0.0 mm 0.00 in0.0 mm
06:50 PM 8.6°F-13.0°C -5537.2°C 63% Calm Calm 12.0 mph19.3 kmh 29.69 in1005.4 mb 0.00 in0.0 mm 0.00 in0.0 mm 0.00 in0.0 mm
06:55 PM 8.4°F-13.1°C -5537.2°C 64% 4.0 mph W6.4 kmh W 9.0 mph14.5 kmh 29.68 in1005.1 mb 0.00 in0.0 mm 0.00 in0.0 mm 0.00 in0.0 mm
07:00 PM 8.4°F-13.1°C -5537.2°C 63% 6.0 mph NW9.7 kmh NW 10.0 mph16.1 kmh 29.68 in1005.1 mb 0.00 in0.0 mm 0.00 in0.0 mm 0.00 in0.0 mm
07:05 PM 8.7°F-12.9°C -1.0°F-18.3°C 64% 3.0 mph WSW4.8 kmh WSW 12.0 mph19.3 kmh 29.68 in1005.1 mb 0.00 in0.0 mm 0.00 in0.0 mm 0.00 in0.0 mm
07:10 PM 8.6°F-13.0°C -5537.2°C 63% 3.0 mph WNW4.8 kmh WNW 11.0 mph17.7 kmh 29.69 in1005.4 mb 0.00 in0.0 mm 0.00 in0.0 mm 0.00 in0.0 mm
07:15 PM 8.1°F-13.3°C -5537.2°C 63% 11.0 mph NW17.7 kmh NW 11.0 mph17.7 kmh 29.71 in1006.1 mb 0.00 in0.0 mm 0.00 in0.0 mm 0.00 in0.0 mm
07:20 PM 7.6°F-13.6°C -5537.2°C 63% 3.0 mph W4.8 kmh W 16.0 mph25.7 kmh 29.71 in1006.1 mb 0.00 in0.0 mm 0.00 in0.0 mm 0.00 in0.0 mm
07:25 PM 7.2°F-13.8°C -5537.2°C 63% 5.0 mph WNW8.0 kmh WNW 14.0 mph22.5 kmh 29.71 in1006.1 mb 0.00 in0.0 mm 0.00 in0.0 mm 0.00 in0.0 mm
07:30 PM 6.9°F-13.9°C -5537.2°C 64% 4.0 mph W6.4 kmh W 9.0 mph14.5 kmh 29.72 in1006.4 mb 0.00 in0.0 mm 0.00 in0.0 mm 0.00 in0.0 mm
07:35 PM 6.7°F-14.1°C -5537.2°C 64% 6.0 mph NW9.7 kmh NW 9.0 mph14.5 kmh 29.71 in1006.1 mb 0.00 in0.0 mm 0.00 in0.0 mm 0.00 in0.0 mm
07:40 PM 6.4°F-14.2°C -5537.2°C 63% 2.0 mph NW3.2 kmh NW 9.0 mph14.5 kmh 29.71 in1006.1 mb 0.00 in0.0 mm 0.00 in0.0 mm 0.00 in0.0 mm
07:45 PM 6.4°F-14.2°C -5537.2°C 64% 4.0 mph WNW6.4 kmh WNW 11.0 mph17.7 kmh 29.72 in1006.4 mb 0.00 in0.0 mm 0.00 in0.0 mm 0.00 in0.0 mm
07:50 PM 6.2°F-14.3°C -5537.2°C 63% 8.0 mph WNW12.9 kmh WNW 13.0 mph20.9 kmh 29.72 in1006.4 mb 0.00 in0.0 mm 0.00 in0.0 mm 0.00 in0.0 mm
07:55 PM 6.0°F-14.4°C -5537.2°C 63% 7.0 mph NW11.3 kmh NW 20.0 mph32.2 kmh 29.73 in1006.8 mb 0.00 in0.0 mm 0.00 in0.0 mm 0.00 in0.0 mm
08:00 PM 5.8°F-14.6°C -5537.2°C 64% 4.0 mph W6.4 kmh W 17.0 mph27.4 kmh 29.73 in1006.8 mb 0.00 in0.0 mm 0.00 in0.0 mm 0.00 in0.0 mm
08:05 PM 5.6°F-14.7°C -4.0°F-20.0°C 64% 2.0 mph WSW3.2 kmh WSW 7.0 mph11.3 kmh 29.74 in1007.1 mb 0.00 in0.0 mm 0.00 in0.0 mm 0.00 in0.0 mm
08:10 PM 5.6°F-14.7°C -4.0°F-20.0°C 64% 6.0 mph W9.7 kmh W 10.0 mph16.1 kmh 29.74 in1007.1 mb 0.00 in0.0 mm 0.00 in0.0 mm 0.00 in0.0 mm
08:15 PM 5.5°F-14.7°C -5537.2°C 63% 5.0 mph WNW8.0 kmh WNW 10.0 mph16.1 kmh 29.74 in1007.1 mb 0.00 in0.0 mm 0.00 in0.0 mm 0.00 in0.0 mm
08:20 PM 5.4°F-14.8°C -5537.2°C 62% 2.0 mph WSW3.2 kmh WSW 12.0 mph19.3 kmh 29.75 in1007.5 mb 0.00 in0.0 mm 0.00 in0.0 mm 0.00 in0.0 mm
08:25 PM 5.4°F-14.8°C -5537.2°C 62% 7.0 mph W11.3 kmh W 9.0 mph14.5 kmh 29.75 in1007.5 mb 0.00 in0.0 mm 0.00 in0.0 mm 0.00 in0.0 mm
08:30 PM 5.5°F-14.7°C -5537.2°C 62% 2.0 mph W3.2 kmh W 9.0 mph14.5 kmh 29.75 in1007.5 mb 0.00 in0.0 mm 0.00 in0.0 mm 0.00 in0.0 mm
08:35 PM 5.6°F-14.7°C -5537.2°C 61% 3.0 mph W4.8 kmh W 12.0 mph19.3 kmh 29.76 in1007.8 mb 0.00 in0.0 mm 0.00 in0.0 mm 0.00 in0.0 mm
08:40 PM 5.5°F-14.7°C -5.0°F-20.6°C 61% 4.0 mph W6.4 kmh W 8.0 mph12.9 kmh 29.76 in1007.8 mb 0.00 in0.0 mm 0.00 in0.0 mm 0.00 in0.0 mm
08:45 PM 5.3°F-14.8°C -5537.2°C 61% 8.0 mph W12.9 kmh W 11.0 mph17.7 kmh 29.77 in1008.1 mb 0.00 in0.0 mm 0.00 in0.0 mm 0.00 in0.0 mm
08:50 PM 5.1°F-14.9°C -5537.2°C 62% 8.0 mph W12.9 kmh W 10.0 mph16.1 kmh 29.78 in1008.5 mb 0.00 in0.0 mm 0.00 in0.0 mm 0.00 in0.0 mm
08:55 PM 5.0°F-15.0°C -5537.2°C 62% 3.0 mph W4.8 kmh W 9.0 mph14.5 kmh 29.78 in1008.5 mb 0.00 in0.0 mm 0.00 in0.0 mm 0.00 in0.0 mm
09:00 PM 4.9°F-15.1°C -5537.2°C 62% 1.0 mph NW1.6 kmh NW 8.0 mph12.9 kmh 29.78 in1008.5 mb 0.00 in0.0 mm 0.00 in0.0 mm 0.00 in0.0 mm
09:05 PM 4.7°F-15.2°C -5537.2°C 62% 3.0 mph SSW4.8 kmh SSW 7.0 mph11.3 kmh 29.78 in1008.5 mb 0.00 in0.0 mm 0.00 in0.0 mm 0.00 in0.0 mm
09:10 PM 4.7°F-15.2°C -5537.2°C 62% 5.0 mph SW8.0 kmh SW 11.0 mph17.7 kmh 29.79 in1008.8 mb 0.00 in0.0 mm 0.00 in0.0 mm 0.00 in0.0 mm
09:15 PM 4.7°F-15.2°C -5537.2°C 62% 1.0 mph WSW1.6 kmh WSW 6.0 mph9.7 kmh 29.79 in1008.8 mb 0.00 in0.0 mm 0.00 in0.0 mm 0.00 in0.0 mm
09:20 PM 4.6°F-15.2°C -5537.2°C 62% 1.0 mph SW1.6 kmh SW 10.0 mph16.1 kmh 29.79 in1008.8 mb 0.00 in0.0 mm 0.00 in0.0 mm 0.00 in0.0 mm
09:25 PM 4.6°F-15.2°C -5537.2°C 62% 1.0 mph WSW1.6 kmh WSW 7.0 mph11.3 kmh 29.80 in1009.1 mb 0.00 in0.0 mm 0.00 in0.0 mm 0.00 in0.0 mm
09:30 PM 4.5°F-15.3°C -5537.2°C 62% 1.0 mph WSW1.6 kmh WSW 8.0 mph12.9 kmh 29.79 in1008.8 mb 0.00 in0.0 mm 0.00 in0.0 mm 0.00 in0.0 mm
09:35 PM 4.4°F-15.3°C -5537.2°C 62% 1.0 mph WSW1.6 kmh WSW 7.0 mph11.3 kmh 29.79 in1008.8 mb 0.00 in0.0 mm 0.00 in0.0 mm 0.00 in0.0 mm
09:40 PM 4.3°F-15.4°C -5537.2°C 63% 5.0 mph NW8.0 kmh NW 9.0 mph14.5 kmh 29.79 in1008.8 mb 0.00 in0.0 mm 0.00 in0.0 mm 0.00 in0.0 mm
09:45 PM 4.4°F-15.3°C -5537.2°C 63% 1.0 mph WSW1.6 kmh WSW 8.0 mph12.9 kmh 29.79 in1008.8 mb 0.00 in0.0 mm 0.00 in0.0 mm 0.00 in0.0 mm
09:50 PM 4.4°F-15.3°C -5537.2°C 63% 3.0 mph SW4.8 kmh SW 7.0 mph11.3 kmh 29.80 in1009.1 mb 0.00 in0.0 mm 0.00 in0.0 mm 0.00 in0.0 mm
09:55 PM 4.4°F-15.3°C -5537.2°C 63% 3.0 mph WSW4.8 kmh WSW 5.0 mph8.0 kmh 29.79 in1008.8 mb 0.00 in0.0 mm 0.00 in0.0 mm 0.00 in0.0 mm
10:00 PM 4.4°F-15.3°C -5537.2°C 62% 1.0 mph W1.6 kmh W 8.0 mph12.9 kmh 29.80 in1009.1 mb 0.00 in0.0 mm 0.00 in0.0 mm 0.00 in0.0 mm
10:05 PM 4.4°F-15.3°C -5537.2°C 62% 2.0 mph SW3.2 kmh SW 8.0 mph12.9 kmh 29.80 in1009.1 mb 0.00 in0.0 mm 0.00 in0.0 mm 0.00 in0.0 mm
10:10 PM 4.6°F-15.2°C -5537.2°C 62% 4.0 mph SW6.4 kmh SW 7.0 mph11.3 kmh 29.80 in1009.1 mb 0.00 in0.0 mm 0.00 in0.0 mm 0.00 in0.0 mm
10:15 PM 4.7°F-15.2°C -5537.2°C 61% 3.0 mph SW4.8 kmh SW 8.0 mph12.9 kmh 29.80 in1009.1 mb 0.00 in0.0 mm 0.00 in0.0 mm 0.00 in0.0 mm
10:20 PM 4.9°F-15.1°C -5537.2°C 61% 1.0 mph WSW1.6 kmh WSW 7.0 mph11.3 kmh 29.80 in1009.1 mb 0.00 in0.0 mm 0.00 in0.0 mm 0.00 in0.0 mm
10:25 PM 4.9°F-15.1°C -6.0°F-21.1°C 60% 6.0 mph WSW9.7 kmh WSW 9.0 mph14.5 kmh 29.81 in1009.5 mb 0.00 in0.0 mm 0.00 in0.0 mm 0.00 in0.0 mm
10:30 PM 5.0°F-15.0°C -5537.2°C 60% 2.0 mph W3.2 kmh W 9.0 mph14.5 kmh 29.81 in1009.5 mb 0.00 in0.0 mm 0.00 in0.0 mm 0.00 in0.0 mm
10:35 PM 5.1°F-14.9°C -5537.2°C 59% 5.0 mph SW8.0 kmh SW 8.0 mph12.9 kmh 29.81 in1009.5 mb 0.00 in0.0 mm 0.00 in0.0 mm 0.00 in0.0 mm
10:40 PM 5.0°F-15.0°C -5537.2°C 60% 3.0 mph SW4.8 kmh SW 7.0 mph11.3 kmh 29.82 in1009.8 mb 0.00 in0.0 mm 0.00 in0.0 mm 0.00 in0.0 mm
10:45 PM 4.9°F-15.1°C -6.0°F-21.1°C 60% 3.0 mph W4.8 kmh W 6.0 mph9.7 kmh 29.82 in1009.8 mb 0.00 in0.0 mm 0.00 in0.0 mm 0.00 in0.0 mm
10:50 PM 4.8°F-15.1°C -5537.2°C 61% 5.0 mph SW8.0 kmh SW 9.0 mph14.5 kmh 29.82 in1009.8 mb 0.00 in0.0 mm 0.00 in0.0 mm 0.00 in0.0 mm
10:55 PM 4.7°F-15.2°C -5537.2°C 60% 3.0 mph W4.8 kmh W 7.0 mph11.3 kmh 29.83 in1010.2 mb 0.00 in0.0 mm 0.00 in0.0 mm 0.00 in0.0 mm
11:00 PM 4.5°F-15.3°C -6.0°F-21.1°C 61% 4.0 mph S6.4 kmh S 7.0 mph11.3 kmh 29.83 in1010.2 mb 0.00 in0.0 mm 0.00 in0.0 mm 0.00 in0.0 mm
11:05 PM 4.2°F-15.4°C -5537.2°C 63% 2.0 mph W3.2 kmh W 7.0 mph11.3 kmh 29.83 in1010.2 mb 0.00 in0.0 mm 0.00 in0.0 mm 0.00 in0.0 mm
11:10 PM 4.0°F-15.6°C -5537.2°C 64% 1.0 mph W1.6 kmh W 7.0 mph11.3 kmh 29.84 in1010.5 mb 0.00 in0.0 mm 0.00 in0.0 mm 0.00 in0.0 mm
11:15 PM 3.8°F-15.7°C -5537.2°C 64% 4.0 mph NW6.4 kmh NW 7.0 mph11.3 kmh 29.84 in1010.5 mb 0.00 in0.0 mm 0.00 in0.0 mm 0.00 in0.0 mm
11:20 PM 3.9°F-15.6°C -5537.2°C 64% 7.0 mph WNW11.3 kmh WNW 7.0 mph11.3 kmh 29.85 in1010.8 mb 0.00 in0.0 mm 0.00 in0.0 mm 0.00 in0.0 mm
11:25 PM 4.0°F-15.6°C -5537.2°C 64% 2.0 mph WSW3.2 kmh WSW 7.0 mph11.3 kmh 29.84 in1010.5 mb 0.00 in0.0 mm 0.00 in0.0 mm 0.00 in0.0 mm
11:30 PM 4.0°F-15.6°C -5537.2°C 64% 8.0 mph W12.9 kmh W 8.0 mph12.9 kmh 29.85 in1010.8 mb 0.00 in0.0 mm 0.00 in0.0 mm 0.00 in0.0 mm
11:35 PM 4.0°F-15.6°C -5537.2°C 63% 5.0 mph WNW8.0 kmh WNW 7.0 mph11.3 kmh 29.85 in1010.8 mb 0.00 in0.0 mm 0.00 in0.0 mm 0.00 in0.0 mm
11:40 PM 4.1°F-15.5°C -5537.2°C 63% 5.0 mph WNW8.0 kmh WNW 7.0 mph11.3 kmh 29.85 in1010.8 mb 0.00 in0.0 mm 0.00 in0.0 mm 0.00 in0.0 mm
11:45 PM 4.2°F-15.4°C -5537.2°C 64% 1.0 mph WNW1.6 kmh WNW 7.0 mph11.3 kmh 29.85 in1010.8 mb 0.00 in0.0 mm 0.00 in0.0 mm 0.00 in0.0 mm
11:50 PM 4.2°F-15.4°C -5537.2°C 64% 1.0 mph WNW1.6 kmh WNW 6.0 mph9.7 kmh 29.85 in1010.8 mb 0.00 in0.0 mm 0.00 in0.0 mm 0.00 in0.0 mm
11:55 PM 4.2°F-15.4°C -5537.2°C 64% 1.0 mph W1.6 kmh W 4.0 mph6.4 kmh 29.85 in1010.8 mb 0.00 in0.0 mm 0.00 in0.0 mm 0.00 in0.0 mm